Time;durP1;ratioP1;P1;durP2;ratioP2;P2;SDS_P1;SDS_P2;PMS_P1;PMS_P2;Temp;Humidity;BMP_temperature;BMP_pressure;BME280_temperature;BME280_humidity;BME280_pressure;Samples;Min_cycle;Max_cycle;Signal;HPM_P1;HPM_P2
2023/10/01 00:00:05;;;;;;;11.32;2.42;;;;;;;;;;4998101;28;20046;-65
2023/10/01 00:02:33;;;;;;;8.95;2.20;;;;;;;;;;4999878;28;20159;-65
2023/10/01 00:05:00;;;;;;;13.10;2.15;;;;;;;;;;4994476;28;20152;-65
2023/10/01 00:07:28;;;;;;;8.02;2.05;;;;;;;;;;4995422;28;20050;-66
2023/10/01 00:09:55;;;;;;;9.25;2.45;;;;;;;;;;4991658;28;20050;-66
2023/10/01 00:12:24;;;;;;;9.98;2.40;;;;;;;;;;4986923;28;20077;-66
2023/10/01 00:14:52;;;;;;;9.13;2.28;;;;;;;;;;4989461;28;20058;-65
2023/10/01 00:17:22;;;;;;;9.05;2.45;;;;;;;;;;4994889;28;20065;-65
2023/10/01 00:19:49;;;;;;;10.52;2.50;;;;;;;;;;4992293;28;20105;-65
2023/10/01 00:22:17;;;;;;;8.27;2.40;;;;;;;;;;4998145;28;20052;-66
2023/10/01 00:24:45;;;;;;;10.75;2.50;;;;;;;;;;4992316;28;20060;-66
2023/10/01 00:27:14;;;;;;;13.77;2.55;;;;;;;;;;4992811;28;20046;-66
2023/10/01 00:29:42;;;;;;;9.23;2.47;;;;;;;;;;4993803;28;20401;-66
2023/10/01 00:32:10;;;;;;;15.48;2.55;;;;;;;;;;4993562;28;20104;-66
2023/10/01 00:34:37;;;;;;;7.28;2.30;;;;;;;;;;4979421;28;20056;-65
2023/10/01 00:37:04;;;;;;;13.27;2.72;;;;;;;;;;4987923;28;20355;-66
2023/10/01 00:39:34;;;;;;;14.05;2.50;;;;;;;;;;4991118;28;20042;-65
2023/10/01 00:42:02;;;;;;;8.20;2.42;;;;;;;;;;4990695;28;20130;-66
2023/10/01 00:44:30;;;;;;;7.70;2.47;;;;;;;;;;4970872;28;20530;-65
2023/10/01 00:46:59;;;;;;;9.57;2.42;;;;;;;;;;4994104;28;20078;-65
2023/10/01 00:49:26;;;;;;;9.50;2.60;;;;;;;;;;4995835;28;20053;-65
2023/10/01 00:51:53;;;;;;;9.63;2.53;;;;;;;;;;4990021;28;20058;-66
2023/10/01 00:54:21;;;;;;;6.90;2.30;;;;;;;;;;4995787;28;20054;-65
2023/10/01 00:56:50;;;;;;;9.95;3.28;;;;;;;;;;4992789;28;20421;-66
2023/10/01 00:59:18;;;;;;;12.45;3.38;;;;;;;;;;4997670;28;20050;-66
2023/10/01 01:01:46;;;;;;;14.25;3.20;;;;;;;;;;4989800;28;20054;-66
2023/10/01 01:04:21;;;;;;;10.40;3.17;;;;;;;;;;4972195;28;20145;-65
2023/10/01 01:06:49;;;;;;;11.80;3.38;;;;;;;;;;4986037;28;20105;-66
2023/10/01 01:09:19;;;;;;;12.00;4.20;;;;;;;;;;4998106;28;20080;-66
2023/10/01 01:11:47;;;;;;;10.27;3.33;;;;;;;;;;4975033;28;20057;-65
2023/10/01 01:14:15;;;;;;;13.25;3.50;;;;;;;;;;4991706;28;20145;-65
2023/10/01 01:16:45;;;;;;;13.00;3.80;;;;;;;;;;4992862;28;20050;-65
2023/10/01 01:19:12;;;;;;;9.07;2.95;;;;;;;;;;4991863;28;20058;-65
2023/10/01 01:21:42;;;;;;;13.45;3.80;;;;;;;;;;4989276;28;20060;-65
2023/10/01 01:24:11;;;;;;;11.18;3.55;;;;;;;;;;4993889;28;20129;-65
2023/10/01 01:26:41;;;;;;;18.35;3.80;;;;;;;;;;4994637;28;20049;-65
2023/10/01 01:29:18;;;;;;;11.07;3.42;;;;;;;;;;4976559;28;20156;-66
2023/10/01 01:31:46;;;;;;;8.02;3.88;;;;;;;;;;4975714;28;20061;-65
2023/10/01 01:34:14;;;;;;;9.88;3.28;;;;;;;;;;4994463;28;20052;-66
2023/10/01 01:36:42;;;;;;;11.85;3.72;;;;;;;;;;4990695;28;20053;-65
2023/10/01 01:39:26;;;;;;;11.80;3.53;;;;;;;;;;4990116;28;20050;-65
2023/10/01 01:41:54;;;;;;;14.73;3.53;;;;;;;;;;4972195;28;20465;-67
2023/10/01 01:44:23;;;;;;;12.77;3.53;;;;;;;;;;4975078;28;20458;-66
2023/10/01 01:46:59;;;;;;;12.88;4.00;;;;;;;;;;4977260;28;20077;-65
2023/10/01 01:49:27;;;;;;;14.07;3.60;;;;;;;;;;4995898;28;20129;-65
2023/10/01 01:52:03;;;;;;;12.70;3.40;;;;;;;;;;4992953;28;20056;-66
2023/10/01 01:54:34;;;;;;;12.35;3.60;;;;;;;;;;4971424;28;20058;-65
2023/10/01 01:57:02;;;;;;;12.60;3.70;;;;;;;;;;4994410;28;20046;-65
2023/10/01 01:59:31;;;;;;;13.95;3.63;;;;;;;;;;4991192;28;20058;-65
2023/10/01 02:01:59;;;;;;;12.95;3.65;;;;;;;;;;4986943;28;20092;-65
2023/10/01 02:04:26;;;;;;;10.95;3.80;;;;;;;;;;4984820;28;20054;-65
2023/10/01 02:06:54;;;;;;;14.15;4.20;;;;;;;;;;4995361;28;20049;-66
2023/10/01 02:09:24;;;;;;;13.57;4.18;;;;;;;;;;4987453;28;20050;-66
2023/10/01 02:11:53;;;;;;;17.83;4.38;;;;;;;;;;4990876;28;20493;-65
2023/10/01 02:17:15;;;;;;;9.85;3.78;;;;;;;;;;4991155;28;20065;-66
2023/10/01 02:19:46;;;;;;;9.98;4.07;;;;;;;;;;4995805;28;20053;-65
2023/10/01 02:22:13;;;;;;;10.23;3.65;;;;;;;;;;4992700;28;20088;-66
2023/10/01 02:24:54;;;;;;;11.90;4.00;;;;;;;;;;5000103;28;20042;-65
2023/10/01 02:27:26;;;;;;;14.00;4.13;;;;;;;;;;4993901;28;20042;-65
2023/10/01 02:30:14;;;;;;;12.87;4.30;;;;;;;;;;4992324;28;20054;-66
2023/10/01 02:32:49;;;;;;;8.98;3.90;;;;;;;;;;4988949;28;20352;-65
2023/10/01 02:35:35;;;;;;;9.85;3.78;;;;;;;;;;4977584;28;20054;-66
2023/10/01 02:38:04;;;;;;;14.02;4.03;;;;;;;;;;4993411;28;20129;-65
2023/10/01 02:40:36;;;;;;;13.38;4.18;;;;;;;;;;4992927;28;20058;-66
2023/10/01 02:43:12;;;;;;;12.27;4.03;;;;;;;;;;4999456;28;20157;-65
2023/10/01 02:45:41;;;;;;;10.52;4.25;;;;;;;;;;4996949;28;20121;-65
2023/10/01 02:48:16;;;;;;;15.57;4.50;;;;;;;;;;4996325;28;20050;-66
2023/10/01 02:50:45;;;;;;;12.10;4.70;;;;;;;;;;4988643;28;20465;-66
2023/10/01 02:53:14;;;;;;;13.38;4.05;;;;;;;;;;4987623;28;20035;-65
2023/10/01 02:55:45;;;;;;;11.40;4.45;;;;;;;;;;4993404;28;20050;-65
2023/10/01 02:58:27;;;;;;;14.25;4.07;;;;;;;;;;4984285;28;20042;-65
2023/10/01 03:00:53;;;;;;;15.02;5.03;;;;;;;;;;4994231;28;20105;-65
2023/10/01 03:03:32;;;;;;;17.63;4.75;;;;;;;;;;4975764;28;20197;-65
2023/10/01 03:05:58;;;;;;;15.30;5.07;;;;;;;;;;4994890;28;20046;-65
2023/10/01 03:08:59;;;;;;;15.20;4.50;;;;;;;;;;4997771;28;20436;-65
2023/10/01 03:11:37;;;;;;;13.90;4.53;;;;;;;;;;4994259;28;20042;-65
2023/10/01 03:14:18;;;;;;;15.80;4.63;;;;;;;;;;4993660;28;20054;-66
2023/10/01 03:16:53;;;;;;;13.40;4.53;;;;;;;;;;4998265;28;20078;-66
2023/10/01 03:19:25;;;;;;;8.40;4.45;;;;;;;;;;4995010;28;20046;-65
2023/10/01 03:24:43;;;;;;;11.70;4.20;;;;;;;;;;4996668;28;20038;-66
2023/10/01 03:27:27;;;;;;;8.83;4.30;;;;;;;;;;4993171;28;21191;-66
2023/10/01 03:30:09;;;;;;;12.05;4.28;;;;;;;;;;5001999;28;20197;-65
2023/10/01 03:32:40;;;;;;;11.65;4.47;;;;;;;;;;4992493;28;20122;-66
2023/10/01 03:35:08;;;;;;;11.48;4.18;;;;;;;;;;4980953;28;20052;-65
2023/10/01 03:37:39;;;;;;;14.52;4.22;;;;;;;;;;5000451;28;20105;-66
2023/10/01 03:40:15;;;;;;;14.65;3.80;;;;;;;;;;4976138;28;20058;-65
2023/10/01 03:42:50;;;;;;;10.63;3.70;;;;;;;;;;4999303;28;20050;-65
2023/10/01 03:45:37;;;;;;;10.48;3.85;;;;;;;;;;4995541;28;20123;-66
2023/10/01 03:48:06;;;;;;;11.23;4.10;;;;;;;;;;5001414;28;20049;-65
2023/10/01 03:50:44;;;;;;;13.07;3.95;;;;;;;;;;4996848;28;20125;-65
2023/10/01 03:53:12;;;;;;;11.98;5.10;;;;;;;;;;4998048;28;20133;-66
2023/10/01 03:55:42;;;;;;;14.27;4.85;;;;;;;;;;4992578;28;20050;-66
2023/10/01 03:58:18;;;;;;;12.25;3.97;;;;;;;;;;4992843;28;20059;-65
2023/10/01 04:00:53;;;;;;;8.90;3.88;;;;;;;;;;4996208;28;20054;-66
2023/10/01 04:03:22;;;;;;;11.32;3.97;;;;;;;;;;4992893;28;20496;-66
2023/10/01 04:05:48;;;;;;;16.02;4.68;;;;;;;;;;4974809;28;20062;-66
2023/10/01 04:08:16;;;;;;;14.00;4.50;;;;;;;;;;4992732;28;20038;-65
2023/10/01 04:10:49;;;;;;;12.38;4.00;;;;;;;;;;4991142;28;20042;-66
2023/10/01 04:13:21;;;;;;;;;;;;;;;;;;4977188;28;20555;-66
2023/10/01 04:15:55;;;;;;;;;;;;;;;;;;4979510;28;20009;-65
2023/10/01 04:18:28;;;;;;;14.52;4.72;;;;;;;;;;4993991;28;19930;-65
2023/10/01 04:23:47;;;;;;;18.02;4.50;;;;;;;;;;4994825;28;20053;-65
2023/10/01 04:26:16;;;;;;;15.90;4.67;;;;;;;;;;4995916;28;20088;-66
2023/10/01 04:28:45;;;;;;;12.32;4.53;;;;;;;;;;4979318;28;20517;-65
2023/10/01 04:31:15;;;;;;;14.77;4.38;;;;;;;;;;4992422;28;20058;-65
2023/10/01 04:33:44;;;;;;;19.50;4.88;;;;;;;;;;4993926;28;20047;-65
2023/10/01 04:36:11;;;;;;;17.70;5.10;;;;;;;;;;4994075;28;20042;-66
2023/10/01 04:38:41;;;;;;;13.85;4.75;;;;;;;;;;4990179;28;20061;-65
2023/10/01 04:41:13;;;;;;;14.05;4.65;;;;;;;;;;4993621;28;20133;-66
2023/10/01 04:43:51;;;;;;;9.50;4.40;;;;;;;;;;4975626;28;20065;-65
2023/10/01 04:46:20;;;;;;;15.10;4.47;;;;;;;;;;4993675;28;20529;-66
2023/10/01 04:48:50;;;;;;;12.13;4.50;;;;;;;;;;4994394;28;20054;-66
2023/10/01 04:51:21;;;;;;;12.15;4.35;;;;;;;;;;4997207;28;20776;-66
2023/10/01 04:53:49;;;;;;;14.20;5.15;;;;;;;;;;4995893;28;20054;-67
2023/10/01 04:56:21;;;;;;;11.80;5.18;;;;;;;;;;4996574;28;20053;-65
2023/10/01 04:58:52;;;;;;;13.52;5.60;;;;;;;;;;4971302;28;20080;-66
2023/10/01 05:01:23;;;;;;;17.10;5.10;;;;;;;;;;4995391;28;20125;-66
2023/10/01 05:03:54;;;;;;;15.90;5.40;;;;;;;;;;4998476;28;20478;-65
2023/10/01 05:06:22;;;;;;;12.65;4.97;;;;;;;;;;4990010;28;20564;-66
2023/10/01 05:08:56;;;;;;;18.35;5.68;;;;;;;;;;4994092;28;20051;-65
2023/10/01 05:11:29;;;;;;;13.75;5.82;;;;;;;;;;4991932;28;20073;-65
2023/10/01 05:13:58;;;;;;;19.70;6.00;;;;;;;;;;4996610;28;20117;-67
2023/10/01 05:16:27;;;;;;;15.18;6.00;;;;;;;;;;4992041;28;20046;-65
2023/10/01 05:19:09;;;;;;;15.15;6.60;;;;;;;;;;4995208;28;20569;-65
2023/10/01 05:21:46;;;;;;;20.08;6.63;;;;;;;;;;5000049;28;20050;-66
2023/10/01 05:24:15;;;;;;;17.27;6.07;;;;;;;;;;4995677;28;20046;-65
2023/10/01 05:26:44;;;;;;;12.25;6.38;;;;;;;;;;5000882;28;20085;-67
2023/10/01 05:29:13;;;;;;;20.30;6.55;;;;;;;;;;4973188;28;20046;-66
2023/10/01 05:31:41;;;;;;;16.73;6.72;;;;;;;;;;4992198;28;20512;-65
2023/10/01 05:34:11;;;;;;;14.00;6.65;;;;;;;;;;4996438;28;20408;-65
2023/10/01 05:36:39;;;;;;;15.38;6.32;;;;;;;;;;4991343;28;20082;-66
2023/10/01 05:39:11;;;;;;;17.88;7.10;;;;;;;;;;4996156;28;20072;-65
2023/10/01 05:41:44;;;;;;;18.70;7.30;;;;;;;;;;4993226;28;20054;-65
2023/10/01 05:44:12;;;;;;;15.88;5.88;;;;;;;;;;4992337;28;20552;-66
2023/10/01 05:46:40;;;;;;;16.50;7.25;;;;;;;;;;5001082;28;20443;-65
2023/10/01 05:49:08;;;;;;;21.52;7.15;;;;;;;;;;4978788;28;20062;-67
2023/10/01 05:51:45;;;;;;;18.33;7.13;;;;;;;;;;4988634;28;20503;-65
2023/10/01 05:54:18;;;;;;;17.00;6.70;;;;;;;;;;4991012;28;20494;-65
2023/10/01 05:56:48;;;;;;;23.40;7.25;;;;;;;;;;4990156;28;20519;-65
2023/10/01 05:59:16;;;;;;;17.70;7.43;;;;;;;;;;4971893;28;20069;-65
2023/10/01 06:01:43;;;;;;;19.15;8.13;;;;;;;;;;4991712;28;20402;-65
2023/10/01 06:04:12;;;;;;;18.70;7.00;;;;;;;;;;4992413;28;20042;-66
2023/10/01 06:06:43;;;;;;;18.33;7.55;;;;;;;;;;4988377;28;20525;-63
2023/10/01 06:09:14;;;;;;;22.35;6.95;;;;;;;;;;4995240;28;20115;-63
2023/10/01 06:11:48;;;;;;;21.58;7.22;;;;;;;;;;4975389;28;20497;-63
2023/10/01 06:14:39;;;;;;;20.60;7.22;;;;;;;;;;4994663;28;20066;-63
2023/10/01 06:17:07;;;;;;;17.10;6.88;;;;;;;;;;4991048;28;20057;-64
2023/10/01 06:19:34;;;;;;;22.70;7.97;;;;;;;;;;4990633;28;20389;-64
2023/10/01 06:22:22;;;;;;;17.27;6.72;;;;;;;;;;4990912;28;20046;-66
2023/10/01 06:24:49;;;;;;;24.67;6.25;;;;;;;;;;4993236;28;20046;-65
2023/10/01 06:27:18;;;;;;;20.02;6.88;;;;;;;;;;4991796;28;20092;-65
2023/10/01 06:29:50;;;;;;;19.38;6.65;;;;;;;;;;4994574;28;20046;-65
2023/10/01 06:32:21;;;;;;;18.20;6.20;;;;;;;;;;4988180;28;20509;-65
2023/10/01 06:34:49;;;;;;;24.08;6.68;;;;;;;;;;4991453;28;20057;-64
2023/10/01 06:37:19;;;;;;;17.55;6.78;;;;;;;;;;4994893;28;20053;-63
2023/10/01 06:39:46;;;;;;;17.27;6.60;;;;;;;;;;4996460;28;20042;-64
2023/10/01 06:42:20;;;;;;;16.40;5.90;;;;;;;;;;4993926;28;20057;-64
2023/10/01 06:44:49;;;;;;;21.58;6.13;;;;;;;;;;4993601;28;20051;-68
2023/10/01 06:47:17;;;;;;;17.92;6.00;;;;;;;;;;4996066;28;20460;-65
2023/10/01 06:49:57;;;;;;;23.17;6.57;;;;;;;;;;4997403;28;20048;-65
2023/10/01 06:52:28;;;;;;;20.77;5.82;;;;;;;;;;4996731;28;20104;-65
2023/10/01 06:54:57;;;;;;;15.75;6.07;;;;;;;;;;4999489;28;20793;-64
2023/10/01 06:57:27;;;;;;;16.85;5.88;;;;;;;;;;4996757;28;20050;-64
2023/10/01 06:59:56;;;;;;;17.80;5.28;;;;;;;;;;4973398;28;20058;-64
2023/10/01 07:02:25;;;;;;;13.93;5.75;;;;;;;;;;4995459;28;20053;-65
2023/10/01 07:04:56;;;;;;;16.13;5.57;;;;;;;;;;4982583;28;20489;-64
2023/10/01 07:07:24;;;;;;;16.25;5.22;;;;;;;;;;4998674;28;20145;-64
2023/10/01 07:09:56;;;;;;;15.98;5.43;;;;;;;;;;4994116;28;20055;-64
2023/10/01 07:12:24;;;;;;;15.15;5.07;;;;;;;;;;4996425;28;20136;-65
2023/10/01 07:14:53;;;;;;;18.05;5.20;;;;;;;;;;4991013;28;20055;-65
2023/10/01 07:17:23;;;;;;;21.35;4.95;;;;;;;;;;4997529;28;20098;-70
2023/10/01 07:19:59;;;;;;;14.93;5.03;;;;;;;;;;4994672;28;20502;-69
2023/10/01 07:22:26;;;;;;;18.00;5.00;;;;;;;;;;4979992;28;20050;-70
2023/10/01 07:24:55;;;;;;;16.95;4.95;;;;;;;;;;4992521;28;20084;-67
2023/10/01 07:27:23;;;;;;;21.08;4.95;;;;;;;;;;4994215;28;20401;-68
2023/10/01 07:29:54;;;;;;;12.05;4.63;;;;;;;;;;4990243;28;20062;-68
2023/10/01 07:32:22;;;;;;;15.48;5.70;;;;;;;;;;4996149;28;20050;-67
2023/10/01 07:34:55;;;;;;;20.73;5.43;;;;;;;;;;4994399;28;20082;-66
2023/10/01 07:37:26;;;;;;;13.77;4.88;;;;;;;;;;4992925;28;20050;-66
2023/10/01 07:39:59;;;;;;;18.05;4.93;;;;;;;;;;4993204;28;20061;-67
2023/10/01 07:42:27;;;;;;;23.95;5.38;;;;;;;;;;4993122;28;20054;-69
2023/10/01 07:44:56;;;;;;;16.50;4.70;;;;;;;;;;4992013;28;20061;-69
2023/10/01 07:47:31;;;;;;;17.50;4.72;;;;;;;;;;4998718;28;20051;-68
2023/10/01 07:49:58;;;;;;;17.65;4.95;;;;;;;;;;4991356;28;20353;-68
2023/10/01 07:52:26;;;;;;;15.48;4.82;;;;;;;;;;4989444;28;20053;-69
2023/10/01 07:54:55;;;;;;;14.95;4.90;;;;;;;;;;4999472;28;20405;-68
2023/10/01 07:57:27;;;;;;;17.17;5.40;;;;;;;;;;5003579;28;20050;-68
2023/10/01 07:59:55;;;;;;;17.08;5.00;;;;;;;;;;4998745;28;21815;-68
2023/10/01 08:02:25;;;;;;;20.23;5.75;;;;;;;;;;4986819;28;20486;-68
2023/10/01 08:04:57;;;;;;;16.77;5.22;;;;;;;;;;4992542;28;20560;-68
2023/10/01 08:07:30;;;;;;;15.70;4.78;;;;;;;;;;4994817;28;20425;-68
2023/10/01 08:09:59;;;;;;;10.60;4.63;;;;;;;;;;4991457;28;20046;-68
2023/10/01 08:12:29;;;;;;;17.75;4.78;;;;;;;;;;4996610;28;20325;-68
2023/10/01 08:17:43;;;;;;;12.43;4.90;;;;;;;;;;4998184;28;20131;-68
2023/10/01 08:20:17;;;;;;;15.05;4.53;;;;;;;;;;5000060;28;20058;-68
2023/10/01 08:23:12;;;;;;;18.58;4.97;;;;;;;;;;4974870;28;20046;-68
2023/10/01 08:25:32;;;;;;;17.38;5.32;;;;;;;;;;4989263;28;20047;-68
2023/10/01 08:28:26;;;;;;;21.80;5.45;;;;;;;;;;4995919;28;20489;-68
2023/10/01 08:31:01;;;;;;;14.45;4.97;;;;;;;;;;4996569;28;20069;-68
2023/10/01 08:33:33;;;;;;;13.35;4.60;;;;;;;;;;4977255;28;20045;-68
2023/10/01 08:36:01;;;;;;;19.05;5.47;;;;;;;;;;4970762;28;20066;-68
2023/10/01 08:38:34;;;;;;;16.90;5.43;;;;;;;;;;4994723;28;20078;-68
2023/10/01 08:41:03;;;;;;;17.88;5.28;;;;;;;;;;4993808;28;20078;-68
2023/10/01 08:43:34;;;;;;;14.32;5.15;;;;;;;;;;4994309;28;20051;-68
2023/10/01 08:46:07;;;;;;;19.23;5.22;;;;;;;;;;4993126;28;20058;-68
2023/10/01 08:48:36;;;;;;;13.85;5.18;;;;;;;;;;4990493;28;20519;-68
2023/10/01 08:51:08;;;;;;;15.48;5.30;;;;;;;;;;4997702;28;20046;-69
2023/10/01 08:53:41;;;;;;;19.52;5.25;;;;;;;;;;4975676;28;20050;-68
2023/10/01 08:56:13;;;;;;;24.42;5.63;;;;;;;;;;4994416;28;20077;-67
2023/10/01 08:58:48;;;;;;;17.08;4.72;;;;;;;;;;4976100;28;20046;-68
2023/10/01 09:01:19;;;;;;;17.17;5.25;;;;;;;;;;4993877;28;20136;-68
2023/10/01 09:03:48;;;;;;;14.00;5.10;;;;;;;;;;4994415;28;20097;-68
2023/10/01 09:06:25;;;;;;;16.88;5.05;;;;;;;;;;4994022;28;20046;-68
2023/10/01 09:08:55;;;;;;;17.05;5.05;;;;;;;;;;4993094;28;20100;-69
2023/10/01 09:11:35;;;;;;;16.80;5.72;;;;;;;;;;4997926;28;20054;-69
2023/10/01 09:14:17;;;;;;;22.60;6.07;;;;;;;;;;4976910;28;20101;-68
2023/10/01 09:16:45;;;;;;;16.33;5.32;;;;;;;;;;4993057;28;20057;-68
2023/10/01 09:21:55;;;;;;;19.77;6.43;;;;;;;;;;4992743;28;20050;-69
2023/10/01 09:24:38;;;;;;;17.92;5.38;;;;;;;;;;4996301;28;20510;-68
2023/10/01 09:27:18;;;;;;;18.23;5.45;;;;;;;;;;4995555;28;20050;-68
2023/10/01 09:29:48;;;;;;;18.77;6.03;;;;;;;;;;5000046;28;20061;-67
2023/10/01 09:32:19;;;;;;;24.85;5.70;;;;;;;;;;4991137;28;20065;-68
2023/10/01 09:34:57;;;;;;;18.90;6.13;;;;;;;;;;4993341;28;20069;-68
2023/10/01 09:37:34;;;;;;;16.13;5.28;;;;;;;;;;4992046;28;20258;-68
2023/10/01 09:40:12;;;;;;;19.38;5.55;;;;;;;;;;4994953;28;20406;-68
2023/10/01 09:42:45;;;;;;;14.35;5.30;;;;;;;;;;4996375;28;20077;-68
2023/10/01 09:45:27;;;;;;;14.55;5.93;;;;;;;;;;4994713;28;20050;-68
2023/10/01 09:48:05;;;;;;;15.23;5.25;;;;;;;;;;4992568;28;20121;-68
2023/10/01 09:50:39;;;;;;;21.70;5.85;;;;;;;;;;4989957;28;20085;-69
2023/10/01 09:53:13;;;;;;;18.50;5.15;;;;;;;;;;4982596;28;20072;-68
2023/10/01 09:55:47;;;;;;;16.10;5.13;;;;;;;;;;4993402;28;20060;-68
2023/10/01 09:58:24;;;;;;;20.90;5.60;;;;;;;;;;4993060;28;20536;-68
2023/10/01 10:00:53;;;;;;;20.05;5.40;;;;;;;;;;4994659;28;20132;-68
2023/10/01 10:03:20;;;;;;;15.27;4.70;;;;;;;;;;4997745;28;20046;-68
2023/10/01 10:05:48;;;;;;;18.02;5.65;;;;;;;;;;4995608;28;20042;-68
2023/10/01 10:08:20;;;;;;;14.80;5.22;;;;;;;;;;4995643;28;20129;-68
2023/10/01 10:10:49;;;;;;;15.57;4.80;;;;;;;;;;4995102;28;20062;-69
2023/10/01 10:13:45;;;;;;;18.83;5.20;;;;;;;;;;4977419;28;20050;-68
2023/10/01 10:16:31;;;;;;;15.55;5.13;;;;;;;;;;4987329;28;20125;-68
2023/10/01 10:19:09;;;;;;;19.38;5.90;;;;;;;;;;4990682;28;20050;-69
2023/10/01 10:22:07;;;;;;;16.40;5.03;;;;;;;;;;4992411;28;20559;-68
2023/10/01 10:24:35;;;;;;;16.80;5.20;;;;;;;;;;4898453;29;20059;-68
2023/10/01 10:27:07;;;;;;;16.52;5.28;;;;;;;;;;4960124;28;20085;-69
2023/10/01 10:29:57;;;;;;;22.90;5.37;;;;;;;;;;4991902;28;20054;-69
2023/10/01 10:32:26;;;;;;;16.35;5.13;;;;;;;;;;4992254;28;20050;-68
2023/10/01 10:35:14;;;;;;;14.93;5.60;;;;;;;;;;4992220;28;20064;-69
2023/10/01 10:37:48;;;;;;;18.27;5.63;;;;;;;;;;4997272;28;20054;-68
2023/10/01 10:40:23;;;;;;;12.95;5.03;;;;;;;;;;4993461;28;20247;-67
2023/10/01 10:43:16;;;;;;;17.83;4.95;;;;;;;;;;4989283;28;20521;-68
2023/10/01 10:45:57;;;;;;;15.60;4.80;;;;;;;;;;4994784;28;20046;-69
2023/10/01 10:48:45;;;;;;;13.23;4.90;;;;;;;;;;4979103;28;20085;-68
2023/10/01 10:51:18;;;;;;;16.50;5.50;;;;;;;;;;4994624;28;20056;-68
2023/10/01 10:53:46;;;;;;;14.52;4.97;;;;;;;;;;4994891;28;20054;-70
2023/10/01 10:56:14;;;;;;;16.50;5.20;;;;;;;;;;4995654;28;20053;-69
2023/10/01 10:58:46;;;;;;;14.73;4.97;;;;;;;;;;4990540;28;20046;-69
2023/10/01 11:01:18;;;;;;;19.55;5.35;;;;;;;;;;4992821;28;20497;-68
2023/10/01 11:03:49;;;;;;;12.60;4.90;;;;;;;;;;4986294;28;20089;-69
2023/10/01 11:06:17;;;;;;;20.73;5.72;;;;;;;;;;4967225;28;20057;-69
2023/10/01 11:08:50;;;;;;;14.10;4.82;;;;;;;;;;4985119;28;20065;-68
2023/10/01 11:11:22;;;;;;;17.17;5.03;;;;;;;;;;4984424;28;20557;-68
2023/10/01 11:13:59;;;;;;;16.30;5.22;;;;;;;;;;4996880;28;20050;-69
2023/10/01 11:16:33;;;;;;;22.00;5.88;;;;;;;;;;4992342;28;20524;-68
2023/10/01 11:19:12;;;;;;;19.63;5.88;;;;;;;;;;4990444;28;20046;-69
2023/10/01 11:21:56;;;;;;;18.85;5.05;;;;;;;;;;4988463;28;20058;-69
2023/10/01 11:24:25;;;;;;;15.20;5.57;;;;;;;;;;5000811;28;20147;-69
2023/10/01 11:27:14;;;;;;;15.05;5.35;;;;;;;;;;4986293;28;20073;-69
2023/10/01 11:29:42;;;;;;;15.60;5.30;;;;;;;;;;4989270;28;20042;-68
2023/10/01 11:32:16;;;;;;;20.52;5.75;;;;;;;;;;4996112;28;20397;-68
2023/10/01 11:34:55;;;;;;;13.18;5.10;;;;;;;;;;4995460;28;20129;-69
2023/10/01 11:37:27;;;;;;;16.48;5.53;;;;;;;;;;4993988;28;20082;-68
2023/10/01 11:39:55;;;;;;;19.10;5.70;;;;;;;;;;4992777;28;20062;-69
2023/10/01 11:42:35;;;;;;;20.58;5.95;;;;;;;;;;4996564;28;20074;-69
2023/10/01 11:45:12;;;;;;;20.85;5.93;;;;;;;;;;4994883;28;20074;-69
2023/10/01 11:48:04;;;;;;;13.15;5.25;;;;;;;;;;4995462;28;20058;-68
2023/10/01 11:50:33;;;;;;;15.25;5.30;;;;;;;;;;4995423;28;20046;-67
2023/10/01 11:53:06;;;;;;;19.52;5.75;;;;;;;;;;4999619;28;20523;-68
2023/10/01 11:55:34;;;;;;;19.13;5.47;;;;;;;;;;4997217;28;20050;-68
2023/10/01 11:58:01;;;;;;;18.10;5.72;;;;;;;;;;4999058;28;20050;-68
2023/10/01 12:03:13;;;;;;;17.02;5.88;;;;;;;;;;4994067;28;20099;-69
2023/10/01 12:05:46;;;;;;;17.27;6.13;;;;;;;;;;4993659;28;20050;-69
2023/10/01 12:08:17;;;;;;;19.75;5.40;;;;;;;;;;4989498;28;20141;-68
2023/10/01 12:10:45;;;;;;;17.17;6.07;;;;;;;;;;4994197;28;20178;-69
2023/10/01 12:13:13;;;;;;;21.42;5.93;;;;;;;;;;4994931;28;20528;-68
2023/10/01 12:15:51;;;;;;;15.70;5.60;;;;;;;;;;4994111;28;20050;-68
2023/10/01 12:18:18;;;;;;;16.10;5.20;;;;;;;;;;4997676;28;20046;-69
2023/10/01 12:20:54;;;;;;;14.68;4.85;;;;;;;;;;4997120;28;20062;-68
2023/10/01 12:23:22;;;;;;;18.92;5.78;;;;;;;;;;4993708;28;20049;-69
2023/10/01 12:25:57;;;;;;;15.82;5.40;;;;;;;;;;4992223;28;20120;-69
2023/10/01 12:28:26;;;;;;;14.02;4.80;;;;;;;;;;4977980;28;20046;-69
2023/10/01 12:31:01;;;;;;;16.23;5.00;;;;;;;;;;4994478;28;20410;-69
2023/10/01 12:33:38;;;;;;;20.30;6.03;;;;;;;;;;4994185;28;20129;-69
2023/10/01 12:36:11;;;;;;;14.40;5.47;;;;;;;;;;4979776;28;20054;-68
2023/10/01 12:38:37;;;;;;;12.65;4.95;;;;;;;;;;4995705;28;20156;-69
2023/10/01 12:41:05;;;;;;;11.98;5.32;;;;;;;;;;4993499;28;20043;-67
2023/10/01 12:43:39;;;;;;;19.23;5.82;;;;;;;;;;4993904;28;20066;-71
2023/10/01 12:46:13;;;;;;;19.90;5.60;;;;;;;;;;4995819;28;20050;-71
2023/10/01 12:48:54;;;;;;;19.70;5.35;;;;;;;;;;4975582;28;20061;-72
2023/10/01 12:51:32;;;;;;;17.23;5.50;;;;;;;;;;4994143;28;20038;-72
2023/10/01 12:53:59;;;;;;;18.23;5.85;;;;;;;;;;4994481;28;20081;-72
2023/10/01 12:56:44;;;;;;;14.13;5.13;;;;;;;;;;4978160;28;20054;-72
2023/10/01 12:59:18;;;;;;;16.98;5.45;;;;;;;;;;4995844;28;20046;-72
2023/10/01 13:01:50;;;;;;;14.65;5.22;;;;;;;;;;4975849;28;20402;-72
2023/10/01 13:04:22;;;;;;;18.33;5.45;;;;;;;;;;4992172;28;20065;-72
2023/10/01 13:06:51;;;;;;;15.75;5.65;;;;;;;;;;4991677;28;20126;-70
2023/10/01 13:12:18;;;;;;;15.60;5.50;;;;;;;;;;4941247;29;20166;-71
2023/10/01 13:15:14;;;;;;;19.05;5.68;;;;;;;;;;4931187;29;20591;-71
2023/10/01 13:17:35;;;;;;;17.25;5.50;;;;;;;;;;4971875;28;20054;-71
2023/10/01 13:20:19;;;;;;;13.35;5.07;;;;;;;;;;4993227;28;20485;-72
2023/10/01 13:22:48;;;;;;;19.02;5.75;;;;;;;;;;4989962;28;20050;-71
2023/10/01 13:25:19;;;;;;;21.08;5.97;;;;;;;;;;4984640;28;20042;-71
2023/10/01 13:27:47;;;;;;;18.33;6.07;;;;;;;;;;4993931;28;20056;-71
2023/10/01 13:30:22;;;;;;;17.27;5.90;;;;;;;;;;4978311;28;20050;-72
2023/10/01 13:33:13;;;;;;;16.65;6.00;;;;;;;;;;4988316;28;20050;-72
2023/10/01 13:35:52;;;;;;;18.33;6.55;;;;;;;;;;4994808;28;20382;-71
2023/10/01 13:38:37;;;;;;;15.63;5.90;;;;;;;;;;4974867;28;20050;-72
2023/10/01 14:08:46;;;;;;;16.30;5.68;;;;;;;;;;4949278;28;20057;-70
2023/10/01 14:11:17;;;;;;;17.42;5.90;;;;;;;;;;4999226;28;20058;-68
2023/10/01 14:13:45;;;;;;;14.88;5.75;;;;;;;;;;4974393;28;20056;-65
2023/10/01 14:16:18;;;;;;;15.18;5.50;;;;;;;;;;4989303;28;20116;-65
2023/10/01 14:18:57;;;;;;;14.90;5.22;;;;;;;;;;4991785;28;20409;-66
2023/10/01 14:21:25;;;;;;;17.75;5.75;;;;;;;;;;4992739;28;20493;-66
2023/10/01 14:23:57;;;;;;;19.25;5.68;;;;;;;;;;5000972;28;20049;-66
2023/10/01 14:26:33;;;;;;;20.25;5.93;;;;;;;;;;4989978;28;20046;-66
2023/10/01 14:29:03;;;;;;;17.13;6.28;;;;;;;;;;4991657;28;20054;-65
2023/10/01 14:31:48;;;;;;;18.97;6.00;;;;;;;;;;4969735;28;20061;-65
2023/10/01 14:34:17;;;;;;;17.25;6.38;;;;;;;;;;4990764;28;20645;-66
2023/10/01 14:36:44;;;;;;;15.48;5.20;;;;;;;;;;4972682;28;20062;-66
2023/10/01 14:39:12;;;;;;;20.23;5.90;;;;;;;;;;4993248;28;20050;-65
2023/10/01 14:41:42;;;;;;;16.58;6.38;;;;;;;;;;4994454;28;20396;-66
2023/10/01 14:44:10;;;;;;;19.83;6.10;;;;;;;;;;4986330;28;20109;-66
2023/10/01 14:46:41;;;;;;;17.67;6.75;;;;;;;;;;4993724;28;20046;-65
2023/10/01 14:49:10;;;;;;;15.63;6.30;;;;;;;;;;4987664;28;20051;-65
2023/10/01 14:51:48;;;;;;;18.38;7.45;;;;;;;;;;4993645;28;20054;-66
2023/10/01 14:54:17;;;;;;;15.85;6.28;;;;;;;;;;4992543;28;20046;-65
2023/10/01 14:56:54;;;;;;;18.23;5.82;;;;;;;;;;4973093;28;20054;-64
2023/10/01 14:59:23;;;;;;;18.92;6.18;;;;;;;;;;4993261;28;20409;-66
2023/10/01 15:01:50;;;;;;;17.73;6.47;;;;;;;;;;4987797;28;20054;-64
2023/10/01 15:04:20;;;;;;;20.15;6.28;;;;;;;;;;4982530;28;20057;-65
2023/10/01 15:06:56;;;;;;;14.50;6.20;;;;;;;;;;4984223;28;20050;-66
2023/10/01 15:09:25;;;;;;;20.42;7.07;;;;;;;;;;4989450;28;20466;-66
2023/10/01 15:11:55;;;;;;;18.00;6.97;;;;;;;;;;4990064;28;20105;-66
2023/10/01 15:14:26;;;;;;;19.90;6.57;;;;;;;;;;4979463;28;20059;-66
2023/10/01 15:16:54;;;;;;;19.67;6.60;;;;;;;;;;4996333;28;20061;-66
2023/10/01 15:19:25;;;;;;;20.20;6.15;;;;;;;;;;4996305;28;20038;-66
2023/10/01 15:21:52;;;;;;;20.65;6.22;;;;;;;;;;4997825;28;20055;-65
2023/10/01 15:24:20;;;;;;;19.52;6.55;;;;;;;;;;4986939;28;20050;-65
2023/10/01 15:26:48;;;;;;;16.55;6.13;;;;;;;;;;4969625;28;20473;-65
2023/10/01 15:29:17;;;;;;;20.25;6.07;;;;;;;;;;4980411;28;20046;-65
2023/10/01 15:31:47;;;;;;;17.60;6.95;;;;;;;;;;4994409;28;20086;-65
2023/10/01 15:34:18;;;;;;;16.65;6.75;;;;;;;;;;4997399;28;20472;-65
2023/10/01 15:36:49;;;;;;;15.32;6.00;;;;;;;;;;4985521;28;20141;-66
2023/10/01 15:39:17;;;;;;;14.95;6.18;;;;;;;;;;4976767;28;20054;-65
2023/10/01 15:41:44;;;;;;;16.27;6.13;;;;;;;;;;4977413;28;20454;-68
2023/10/01 15:44:12;;;;;;;17.27;6.13;;;;;;;;;;4989589;28;20377;-65
2023/10/01 15:46:43;;;;;;;15.85;6.00;;;;;;;;;;4990532;28;20058;-65